createdAt,value
2023-05-22T00:01:52.072Z,68.13
2023-05-22T00:04:21.637Z,67.36
2023-05-22T00:06:50.137Z,67.60
2023-05-22T00:09:18.553Z,68.14
2023-05-22T00:11:46.515Z,67.33
2023-05-22T00:14:14.491Z,67.57
2023-05-22T00:16:42.524Z,67.67
2023-05-22T00:19:13.722Z,67.15
2023-05-22T00:21:42.066Z,68.01
2023-05-22T00:24:10.321Z,68.12
2023-05-22T00:26:38.766Z,67.62
2023-05-22T00:29:06.935Z,67.02
2023-05-22T00:31:34.754Z,67.80
2023-05-22T00:34:02.627Z,67.86
2023-05-22T00:36:32.018Z,68.09
2023-05-22T00:38:59.763Z,68.98
2023-05-22T00:41:27.974Z,68.96
2023-05-22T00:43:56.086Z,69.05
2023-05-22T00:46:24.591Z,69.60
2023-05-22T00:48:52.844Z,69.78
2023-05-22T00:51:21.456Z,69.60
2023-05-22T00:53:50.998Z,69.26
2023-05-22T00:56:19.176Z,70.22
2023-05-22T00:58:47.459Z,69.96
2023-05-22T01:01:16.239Z,69.83
2023-05-22T01:03:44.867Z,70.37
2023-05-22T01:06:13.175Z,70.65
2023-05-22T01:08:41.564Z,71.48
2023-05-22T01:11:14.211Z,71.75
2023-05-22T01:13:48.213Z,71.96
2023-05-22T01:16:30.347Z,72.78
2023-05-22T01:19:18.902Z,72.87
2023-05-22T01:21:51.198Z,72.98
2023-05-22T01:24:45.748Z,72.05
2023-05-22T01:27:57.845Z,72.75
2023-05-22T01:30:49.505Z,72.63
2023-05-22T01:33:18.219Z,72.57
2023-05-22T01:35:48.024Z,72.51
2023-05-22T01:38:16.933Z,71.93
2023-05-22T01:40:45.962Z,71.95
2023-05-22T01:43:14.246Z,72.24
2023-05-22T01:45:42.065Z,72.40
2023-05-22T01:48:12.038Z,72.51
2023-05-22T01:50:40.695Z,72.22
2023-05-22T01:53:13.745Z,72.92
2023-05-22T01:55:45.424Z,72.43
2023-05-22T01:58:20.648Z,72.48
2023-05-22T02:00:49.198Z,72.59
2023-05-22T02:03:22.159Z,72.61
2023-05-22T02:05:53.440Z,72.39
2023-05-22T02:08:22.732Z,72.08
2023-05-22T02:10:51.223Z,72.14
2023-05-22T02:13:19.935Z,72.03
2023-05-22T02:15:48.961Z,71.98
2023-05-22T02:18:16.854Z,72.09
2023-05-22T02:20:47.587Z,72.38
2023-05-22T02:23:15.401Z,72.36
2023-05-22T02:25:43.292Z,71.41
2023-05-22T02:28:11.343Z,72.12
2023-05-22T02:30:39.531Z,71.96
2023-05-22T02:33:09.441Z,72.25
2023-05-22T02:35:37.308Z,71.61
2023-05-22T02:38:06.626Z,71.91
2023-05-22T02:40:34.617Z,72.60
2023-05-22T02:43:02.478Z,72.57
2023-05-22T02:45:30.353Z,72.61
2023-05-22T02:47:58.422Z,72.49
2023-05-22T02:50:26.250Z,73.10
2023-05-22T02:52:54.007Z,72.71
2023-05-22T02:55:23.218Z,72.99
2023-05-22T02:57:51.008Z,72.85
2023-05-22T03:00:19.928Z,72.77
2023-05-22T03:02:47.747Z,73.00
2023-05-22T03:05:18.025Z,72.72
2023-05-22T03:07:48.731Z,72.87
2023-05-22T03:10:16.832Z,73.40
2023-05-22T03:12:45.998Z,73.28
2023-05-22T03:15:14.356Z,73.22
2023-05-22T03:17:42.149Z,73.39
2023-05-22T03:20:10.840Z,73.34
2023-05-22T03:22:38.678Z,73.24
2023-05-22T03:25:09.506Z,73.35
2023-05-22T03:27:37.393Z,73.36
2023-05-22T03:30:08.195Z,73.16
2023-05-22T03:32:37.750Z,73.27
2023-05-22T03:35:06.983Z,72.88
2023-05-22T03:37:34.881Z,72.93
2023-05-22T03:40:02.771Z,72.88
2023-05-22T03:42:30.531Z,73.14
2023-05-22T03:44:58.353Z,72.51
2023-05-22T03:47:27.542Z,72.77
2023-05-22T03:49:55.366Z,72.38
2023-05-22T03:52:23.583Z,72.06
2023-05-22T03:54:51.482Z,72.19
2023-05-22T03:57:20.086Z,72.03
2023-05-22T03:59:47.983Z,71.90
2023-05-22T04:02:16.884Z,71.57
2023-05-22T04:04:47.170Z,71.17
2023-05-22T04:07:15.172Z,71.75
2023-05-22T04:09:42.920Z,73.34
2023-05-22T04:12:11.351Z,74.68
2023-05-22T04:14:39.194Z,74.35
2023-05-22T04:17:06.961Z,74.39
2023-05-22T04:19:34.960Z,74.19
2023-05-22T04:22:04.362Z,74.18
2023-05-22T04:24:32.181Z,74.50
2023-05-22T04:27:00.818Z,74.48
2023-05-22T04:29:30.463Z,74.49
2023-05-22T04:32:00.522Z,74.44
2023-05-22T04:34:28.941Z,74.09
2023-05-22T04:36:56.753Z,74.31
2023-05-22T04:39:26.316Z,74.19
2023-05-22T04:41:54.290Z,73.80
2023-05-22T04:44:23.046Z,74.10
2023-05-22T04:46:51.881Z,73.74
2023-05-22T04:49:20.529Z,73.78
2023-05-22T04:51:48.410Z,73.49
2023-05-22T04:54:16.225Z,73.60
2023-05-22T04:56:45.449Z,73.38
2023-05-22T04:59:16.279Z,73.00
2023-05-22T05:01:45.409Z,72.57
2023-05-22T05:04:13.435Z,72.42
2023-05-22T05:06:41.289Z,72.38
2023-05-22T05:09:09.095Z,71.78
2023-05-22T05:11:36.960Z,71.87
2023-05-22T05:14:06.108Z,71.94
2023-05-22T05:16:34.018Z,71.24
2023-05-22T05:19:02.184Z,71.66
2023-05-22T05:21:30.087Z,71.34
2023-05-22T05:23:57.911Z,70.72
2023-05-22T05:26:27.315Z,71.78
2023-05-22T05:28:56.627Z,71.02
2023-05-22T05:31:26.149Z,69.98
2023-05-22T05:33:56.646Z,70.26
2023-05-22T05:36:25.365Z,69.88
2023-05-22T05:38:54.233Z,69.62
2023-05-22T05:41:22.047Z,69.07
2023-05-22T05:43:49.865Z,68.62
2023-05-22T05:46:18.070Z,69.05
2023-05-22T05:48:47.393Z,68.50
2023-05-22T05:51:15.953Z,68.62
2023-05-22T05:53:43.762Z,67.82
2023-05-22T05:56:11.796Z,67.78
2023-05-22T05:58:39.660Z,67.76
2023-05-22T06:01:07.683Z,67.98
2023-05-22T06:03:35.693Z,68.14
2023-05-22T06:06:05.382Z,67.55
2023-05-22T06:08:34.570Z,67.90
2023-05-22T06:11:03.408Z,68.08
2023-05-22T06:13:31.212Z,67.46
2023-05-22T06:16:01.703Z,68.27
2023-05-22T06:18:30.720Z,67.66
2023-05-22T06:20:59.149Z,67.16
2023-05-22T06:23:28.300Z,67.72
2023-05-22T06:25:56.242Z,66.86
2023-05-22T06:28:24.164Z,66.88
2023-05-22T06:30:51.993Z,66.84
2023-05-22T06:33:19.848Z,66.73
2023-05-22T06:35:47.720Z,66.42
2023-05-22T06:38:15.930Z,65.73
2023-05-22T06:40:45.144Z,65.77
2023-05-22T06:43:13.187Z,65.08
2023-05-22T06:45:41.040Z,64.90
2023-05-22T06:48:09.048Z,64.49
2023-05-22T06:50:37.378Z,63.88
2023-05-22T06:53:05.308Z,63.53
2023-05-22T06:55:33.168Z,63.35
2023-05-22T06:58:02.415Z,60.72
2023-05-22T07:00:30.319Z,59.76
2023-05-22T07:02:58.172Z,57.07
2023-05-22T07:05:26.002Z,57.10
2023-05-22T07:07:59.696Z,54.95
2023-05-22T07:10:27.743Z,55.88
2023-05-22T07:12:55.788Z,55.10
2023-05-22T07:15:24.915Z,54.38
2023-05-22T07:17:53.032Z,54.24
2023-05-22T07:20:20.927Z,53.35
2023-05-22T07:22:48.760Z,52.71
2023-05-22T07:25:16.677Z,52.70
2023-05-22T07:27:44.559Z,53.02
2023-05-22T07:30:13.316Z,53.45
2023-05-22T07:32:42.574Z,52.90
2023-05-22T07:35:11.784Z,51.84
2023-05-22T07:37:39.632Z,52.54
2023-05-22T07:40:09.834Z,52.11
2023-05-22T07:42:38.299Z,52.94
2023-05-22T07:45:07.337Z,53.40
2023-05-22T07:47:35.178Z,52.93
2023-05-22T07:50:05.070Z,53.78
2023-05-22T07:52:32.923Z,54.54
2023-05-22T07:55:01.111Z,54.72
2023-05-22T07:57:29.655Z,54.56
2023-05-22T07:59:57.546Z,54.44
2023-05-22T08:02:25.626Z,54.67
2023-05-22T08:04:53.569Z,54.95
2023-05-22T08:07:22.807Z,54.51
2023-05-22T08:09:50.674Z,54.86
2023-05-22T08:12:18.572Z,54.17
2023-05-22T08:14:46.397Z,54.10
2023-05-22T08:17:14.506Z,53.63
2023-05-22T08:19:42.580Z,53.97
2023-05-22T08:22:10.562Z,54.24
2023-05-22T08:24:39.720Z,54.24
2023-05-22T08:27:07.755Z,54.74
2023-05-22T08:29:36.260Z,54.04
2023-05-22T08:32:04.265Z,52.88
2023-05-22T08:34:32.513Z,53.09
2023-05-22T08:37:00.400Z,52.64
2023-05-22T08:39:28.448Z,50.83
2023-05-22T08:41:57.632Z,50.98
2023-05-22T08:44:25.963Z,49.69
2023-05-22T08:46:53.939Z,49.07
2023-05-22T08:49:24.097Z,49.25
2023-05-22T08:51:55.792Z,49.10
2023-05-22T08:54:26.923Z,48.03
2023-05-22T08:56:57.318Z,48.70
2023-05-22T08:59:27.000Z,46.74
2023-05-22T09:01:54.961Z,47.38
2023-05-22T09:04:24.207Z,47.16
2023-05-22T09:06:52.670Z,46.66
2023-05-22T09:09:20.567Z,44.87
2023-05-22T09:11:48.522Z,44.95
2023-05-22T09:14:16.487Z,44.17
2023-05-22T09:16:50.026Z,44.69
2023-05-22T09:19:17.940Z,43.15
2023-05-22T09:21:45.879Z,43.53
2023-05-22T09:24:14.346Z,43.49
2023-05-22T09:26:42.484Z,44.19
2023-05-22T09:29:10.350Z,43.25
2023-05-22T09:31:44.917Z,44.10
2023-05-22T09:34:15.653Z,44.49
2023-05-22T09:36:43.793Z,45.14
2023-05-22T09:39:11.770Z,45.74
2023-05-22T09:41:41.065Z,45.38
2023-05-22T09:44:14.138Z,46.05
2023-05-22T09:46:42.929Z,46.57
2023-05-22T09:49:13.306Z,45.95
2023-05-22T09:51:48.072Z,45.85
2023-05-22T09:54:17.745Z,45.71
2023-05-22T09:56:46.828Z,44.82
2023-05-22T09:59:15.266Z,43.15
2023-05-22T10:01:43.588Z,44.01
2023-05-22T10:04:14.274Z,44.35
2023-05-22T10:06:44.479Z,43.79
2023-05-22T10:09:19.301Z,41.85
2023-05-22T10:11:47.890Z,42.18
2023-05-22T10:14:16.272Z,42.23
2023-05-22T10:16:45.266Z,42.95
2023-05-22T10:19:13.744Z,42.48
2023-05-22T10:21:44.718Z,43.11
2023-05-22T10:24:13.405Z,42.74
2023-05-22T10:26:42.201Z,43.32
2023-05-22T10:29:13.405Z,43.00
2023-05-22T10:31:46.675Z,44.03
2023-05-22T10:34:22.401Z,44.28
2023-05-22T10:37:18.295Z,44.42
2023-05-22T10:39:57.141Z,44.94
2023-05-22T10:42:24.996Z,44.58
2023-05-22T10:44:54.572Z,44.13
2023-05-22T10:47:22.443Z,43.50
2023-05-22T10:49:51.237Z,43.46
2023-05-22T10:52:22.084Z,43.01
2023-05-22T10:54:53.665Z,43.01
2023-05-22T10:57:26.068Z,43.18
2023-05-22T11:00:09.488Z,43.16
2023-05-22T11:02:42.441Z,42.40
2023-05-22T11:05:35.549Z,42.28
2023-05-22T11:08:39.456Z,41.36
2023-05-22T11:11:14.734Z,41.38
2023-05-22T11:13:43.640Z,41.44
2023-05-22T11:16:12.454Z,41.08
2023-05-22T11:18:40.368Z,41.72
2023-05-22T11:21:11.926Z,40.82
2023-05-22T11:23:41.157Z,40.89
2023-05-22T11:26:19.964Z,41.38
2023-05-22T11:28:53.232Z,42.62
2023-05-22T11:31:23.314Z,43.60
2023-05-22T11:33:51.436Z,43.79
2023-05-22T11:36:19.312Z,44.63
2023-05-22T11:38:48.561Z,44.24
2023-05-22T11:41:17.200Z,44.35
2023-05-22T11:43:45.372Z,44.31
2023-05-22T11:46:14.159Z,44.19
2023-05-22T11:48:43.075Z,44.35
2023-05-22T11:51:11.222Z,43.90
2023-05-22T11:53:39.107Z,44.70
2023-05-22T11:56:08.513Z,44.73
2023-05-22T11:58:36.318Z,44.99
2023-05-22T12:01:05.236Z,45.16
2023-05-22T12:03:33.460Z,45.34
2023-05-22T12:06:02.895Z,45.56
2023-05-22T12:08:30.799Z,44.61
2023-05-22T12:10:58.604Z,45.16
2023-05-22T12:13:28.894Z,45.62
2023-05-22T12:16:00.433Z,45.21
2023-05-22T12:18:28.576Z,45.19
2023-05-22T12:20:57.184Z,45.03
2023-05-22T12:23:25.852Z,45.03
2023-05-22T12:26:00.439Z,44.44
2023-05-22T12:28:29.608Z,43.42
2023-05-22T12:30:57.591Z,43.35
2023-05-22T12:33:28.939Z,41.88
2023-05-22T12:35:58.532Z,40.81
2023-05-22T12:38:27.454Z,41.91
2023-05-22T12:40:56.524Z,42.93
2023-05-22T12:43:25.156Z,41.95
2023-05-22T12:45:54.540Z,41.69
2023-05-22T12:48:22.944Z,43.31
2023-05-22T12:50:50.823Z,44.19
2023-05-22T12:53:18.628Z,45.21
2023-05-22T12:55:46.456Z,44.88
2023-05-22T12:58:14.216Z,44.58
2023-05-22T13:00:42.246Z,44.82
2023-05-22T13:03:12.084Z,46.04
2023-05-22T13:05:40.234Z,45.61
2023-05-22T13:08:08.291Z,46.56
2023-05-22T13:10:36.506Z,45.73
2023-05-22T13:13:04.460Z,45.49
2023-05-22T13:15:32.626Z,45.51
2023-05-22T13:18:00.677Z,45.47
2023-05-22T13:20:29.915Z,44.21
2023-05-22T13:22:57.753Z,45.00
2023-05-22T13:25:25.592Z,44.40
2023-05-22T13:27:53.412Z,43.61
2023-05-22T13:30:21.441Z,43.84
2023-05-22T13:32:49.264Z,42.52
2023-05-22T13:35:17.077Z,43.44
2023-05-22T13:37:46.963Z,44.32
2023-05-22T13:40:15.988Z,44.56
2023-05-22T13:42:44.328Z,43.23
2023-05-22T13:45:12.950Z,43.47
2023-05-22T13:47:40.916Z,44.34
2023-05-22T13:50:09.889Z,43.61
2023-05-22T13:52:37.817Z,43.61
2023-05-22T13:55:07.685Z,43.56
2023-05-22T13:57:37.048Z,43.98
2023-05-22T14:00:05.444Z,43.57
2023-05-22T14:02:33.423Z,43.58
2023-05-22T14:05:01.309Z,43.51
2023-05-22T14:07:29.109Z,44.10
2023-05-22T14:09:58.615Z,43.57
2023-05-22T14:12:29.817Z,43.07
2023-05-22T14:14:57.731Z,41.91
2023-05-22T14:17:25.660Z,41.98
2023-05-22T14:19:53.483Z,41.79
2023-05-22T14:22:21.763Z,41.27
2023-05-22T14:24:49.810Z,41.29
2023-05-22T14:27:17.597Z,41.68
2023-05-22T14:29:46.736Z,41.34
2023-05-22T14:32:14.572Z,41.34
2023-05-22T14:34:42.375Z,41.78
2023-05-22T14:37:10.163Z,40.34
2023-05-22T14:39:38.001Z,40.13
2023-05-22T14:42:06.248Z,38.06
2023-05-22T14:44:34.061Z,38.33
2023-05-22T14:47:03.254Z,37.32
2023-05-22T14:49:31.099Z,38.11
2023-05-22T14:51:58.947Z,39.80
2023-05-22T14:54:27.233Z,41.12
2023-05-22T14:56:55.083Z,41.73
2023-05-22T14:59:22.908Z,41.51
2023-05-22T15:01:52.171Z,41.67
2023-05-22T15:04:22.557Z,42.31
2023-05-22T15:06:50.438Z,42.35
2023-05-22T15:09:18.271Z,41.48
2023-05-22T15:11:49.158Z,40.56
2023-05-22T15:14:17.074Z,40.97
2023-05-22T15:16:45.070Z,40.66
2023-05-22T15:19:13.132Z,41.41
2023-05-22T15:21:42.625Z,41.43
2023-05-22T15:24:10.512Z,42.66
2023-05-22T15:26:38.437Z,43.14
2023-05-22T15:29:06.395Z,43.76
2023-05-22T15:31:34.395Z,44.55
2023-05-22T15:34:02.173Z,44.55
2023-05-22T15:36:30.587Z,44.68
2023-05-22T15:38:59.857Z,44.54
2023-05-22T15:41:27.695Z,44.71
2023-05-22T15:43:56.223Z,44.56
2023-05-22T15:46:24.012Z,47.27
2023-05-22T15:48:51.908Z,48.77
2023-05-22T15:51:19.677Z,52.51
2023-05-22T15:53:47.500Z,55.20
2023-05-22T15:56:16.692Z,56.56
2023-05-22T15:58:44.550Z,56.10
2023-05-22T16:01:13.455Z,56.62
2023-05-22T16:03:41.496Z,55.54
2023-05-22T16:06:09.520Z,56.43
2023-05-22T16:08:37.365Z,57.17
2023-05-22T16:11:05.243Z,59.01
2023-05-22T16:13:34.660Z,58.28
2023-05-22T16:16:03.415Z,58.51
2023-05-22T16:18:31.232Z,59.42
2023-05-22T16:20:59.109Z,57.56
2023-05-22T16:23:26.979Z,58.40
2023-05-22T16:25:54.795Z,57.71
2023-05-22T16:28:22.614Z,58.32
2023-05-22T16:30:51.785Z,58.96
2023-05-22T16:33:19.556Z,58.53
2023-05-22T16:35:47.461Z,58.21
2023-05-22T16:38:15.575Z,57.69
2023-05-22T16:40:43.507Z,59.01
2023-05-22T16:43:12.578Z,58.78
2023-05-22T16:45:41.204Z,58.14
2023-05-22T16:48:11.324Z,58.78
2023-05-22T16:50:42.419Z,58.61
2023-05-22T16:53:10.191Z,57.95
2023-05-22T16:55:38.305Z,58.11
2023-05-22T16:58:06.615Z,58.08
2023-05-22T17:00:34.594Z,58.83
2023-05-22T17:03:03.524Z,58.41
2023-05-22T17:05:32.896Z,58.47
2023-05-22T17:08:00.740Z,58.45
2023-05-22T17:10:28.531Z,58.09
2023-05-22T17:12:56.726Z,58.42
2023-05-22T17:15:24.877Z,58.01
2023-05-22T17:17:53.796Z,58.42
2023-05-22T17:20:25.889Z,58.77
2023-05-22T17:22:55.108Z,58.86
2023-05-22T17:25:22.908Z,59.04
2023-05-22T17:27:50.725Z,59.00
2023-05-22T17:30:18.785Z,59.44
2023-05-22T17:32:46.685Z,59.32
2023-05-22T17:35:14.611Z,60.54
2023-05-22T17:37:43.544Z,59.86
2023-05-22T17:40:13.196Z,59.88
2023-05-22T17:42:41.098Z,60.12
2023-05-22T17:45:10.203Z,60.45
2023-05-22T17:47:38.049Z,60.33
2023-05-22T17:50:06.346Z,60.41
2023-05-22T17:52:34.278Z,60.97
2023-05-22T17:55:02.028Z,61.33
2023-05-22T17:57:32.158Z,60.97
2023-05-22T17:59:59.947Z,61.50
2023-05-22T18:02:28.379Z,61.37
2023-05-22T18:04:56.353Z,61.61
2023-05-22T18:07:24.165Z,62.01
2023-05-22T18:09:51.949Z,62.03
2023-05-22T18:14:51.767Z,62.53
2023-05-22T18:17:19.660Z,62.77
2023-05-22T18:19:47.432Z,63.34
2023-05-22T18:22:15.305Z,63.55
2023-05-22T18:24:43.096Z,63.74
2023-05-22T18:27:10.896Z,63.97
2023-05-22T18:29:39.565Z,64.64
2023-05-22T18:32:10.961Z,64.90
2023-05-22T18:34:38.788Z,65.00
2023-05-22T18:37:06.777Z,65.67
2023-05-22T18:39:34.669Z,65.95
2023-05-22T18:42:02.499Z,66.19
2023-05-22T18:44:30.300Z,66.63
2023-05-22T18:46:58.177Z,66.81
2023-05-22T18:49:27.379Z,66.71
2023-05-22T18:51:55.140Z,66.88
2023-05-22T18:54:22.974Z,67.01
2023-05-22T18:56:51.009Z,67.15
2023-05-22T18:59:18.894Z,67.36
2023-05-22T19:01:46.789Z,67.63
2023-05-22T19:04:14.663Z,67.45
2023-05-22T19:06:43.908Z,68.04
2023-05-22T19:09:12.014Z,68.05
2023-05-22T19:11:39.957Z,68.27
2023-05-22T19:14:07.782Z,68.27
2023-05-22T19:16:35.779Z,68.82
2023-05-22T19:19:04.559Z,69.31
2023-05-22T19:21:32.590Z,69.70
2023-05-22T19:24:01.743Z,69.55
2023-05-22T19:26:29.558Z,68.92
2023-05-22T19:28:59.432Z,69.33
2023-05-22T19:31:27.785Z,69.09
2023-05-22T19:33:55.617Z,69.40
2023-05-22T19:36:23.556Z,69.57
2023-05-22T19:38:53.257Z,69.37
2023-05-22T19:41:23.611Z,69.98
2023-05-22T19:43:52.248Z,69.96
2023-05-22T19:46:20.190Z,70.14
2023-05-22T19:48:48.004Z,70.90
2023-05-22T19:51:16.049Z,70.75
2023-05-22T19:53:44.406Z,71.21
2023-05-22T19:56:12.567Z,71.20
2023-05-22T19:58:41.929Z,71.41
2023-05-22T20:01:09.844Z,70.98
2023-05-22T20:03:37.835Z,72.10
2023-05-22T20:06:06.371Z,72.23
2023-05-22T20:08:34.170Z,71.74
2023-05-22T20:11:01.962Z,72.02
2023-05-22T20:13:29.815Z,72.45
2023-05-22T20:16:02.669Z,72.18
2023-05-22T20:18:31.795Z,72.50
2023-05-22T20:20:59.654Z,72.65
2023-05-22T20:23:27.566Z,73.34
2023-05-22T20:25:55.411Z,72.97
2023-05-22T20:28:23.294Z,73.18
2023-05-22T20:30:51.167Z,73.04
2023-05-22T20:33:20.452Z,73.49
2023-05-22T20:35:50.236Z,73.22
2023-05-22T20:38:20.002Z,73.58
2023-05-22T20:40:47.909Z,73.75
2023-05-22T20:43:16.337Z,73.87
2023-05-22T20:45:45.757Z,74.67
2023-05-22T20:48:14.195Z,74.33
2023-05-22T20:50:43.490Z,73.64
2023-05-22T20:53:12.381Z,74.16
2023-05-22T20:55:40.484Z,73.64
2023-05-22T20:58:09.250Z,74.44
2023-05-22T21:00:39.958Z,73.95
2023-05-22T21:03:08.121Z,74.36
2023-05-22T21:05:36.808Z,74.21
2023-05-22T21:08:06.049Z,74.39
2023-05-22T21:10:34.254Z,74.90
2023-05-22T21:13:02.266Z,74.93
2023-05-22T21:15:30.125Z,75.96
2023-05-22T21:17:58.353Z,75.61
2023-05-22T21:20:27.625Z,75.05
2023-05-22T21:22:55.571Z,76.39
2023-05-22T21:25:24.858Z,76.37
2023-05-22T21:27:54.530Z,75.64
2023-05-22T21:30:22.709Z,75.76
2023-05-22T21:32:50.671Z,75.78
2023-05-22T21:35:18.574Z,75.92
2023-05-22T21:37:46.722Z,76.08
2023-05-22T21:40:14.566Z,76.61
2023-05-22T21:42:46.329Z,76.23
2023-05-22T21:45:14.833Z,77.30
2023-05-22T21:47:42.894Z,77.24
2023-05-22T21:50:11.513Z,77.00
2023-05-22T21:52:39.558Z,77.14
2023-05-22T21:55:08.339Z,77.06
2023-05-22T21:57:36.121Z,77.31
2023-05-22T22:00:06.072Z,77.59
2023-05-22T22:02:34.345Z,77.37
2023-05-22T22:05:02.349Z,77.59
2023-05-22T22:07:30.234Z,77.42
2023-05-22T22:09:59.450Z,78.15
2023-05-22T22:12:27.687Z,77.88
2023-05-22T22:14:55.572Z,77.79
2023-05-22T22:17:24.892Z,77.93
2023-05-22T22:19:57.166Z,78.27
2023-05-22T22:22:25.936Z,77.98
2023-05-22T22:24:54.877Z,77.75
2023-05-22T22:27:23.131Z,78.18
2023-05-22T22:29:51.526Z,78.03
2023-05-22T22:32:20.181Z,78.34
2023-05-22T22:34:54.143Z,78.65
2023-05-22T22:37:22.212Z,78.44
2023-05-22T22:39:50.223Z,78.69
2023-05-22T22:42:18.368Z,78.55
2023-05-22T22:44:46.421Z,78.62
2023-05-22T22:47:14.375Z,78.28
2023-05-22T22:49:42.445Z,78.12
2023-05-22T22:52:11.638Z,78.31
2023-05-22T22:54:39.511Z,78.70
2023-05-22T22:57:08.119Z,78.76
2023-05-22T22:59:38.444Z,79.20
2023-05-22T23:02:06.708Z,78.59
2023-05-22T23:04:34.675Z,78.96
2023-05-22T23:07:03.190Z,78.86
2023-05-22T23:09:32.341Z,79.37
2023-05-22T23:12:00.155Z,79.67
2023-05-22T23:14:28.086Z,79.22
2023-05-22T23:16:56.096Z,79.87
2023-05-22T23:19:24.086Z,80.20
2023-05-22T23:21:52.052Z,80.05
2023-05-22T23:24:19.888Z,80.30
2023-05-22T23:26:49.082Z,80.76
2023-05-22T23:29:17.341Z,80.43
2023-05-22T23:31:46.485Z,80.52
2023-05-22T23:34:14.342Z,80.60
2023-05-22T23:36:42.172Z,80.83
2023-05-22T23:39:10.027Z,80.69
2023-05-22T23:41:38.009Z,80.44
2023-05-22T23:44:07.924Z,81.07
2023-05-22T23:46:35.859Z,80.85
2023-05-22T23:49:03.714Z,80.74
2023-05-22T23:51:31.719Z,81.10
2023-05-22T23:53:59.532Z,81.02
2023-05-22T23:56:27.569Z,80.90
2023-05-22T23:58:55.343Z,81.08
